Time;durP1;ratioP1;P1;durP2;ratioP2;P2;SDS_P1;SDS_P2;PMS_P1;PMS_P2;Temp;Humidity;BMP_temperature;BMP_pressure;BME280_temperature;BME280_humidity;BME280_pressure;Samples;Min_cycle;Max_cycle;Signal;HPM_P1;HPM_P2
2023/04/08 00:00:59;;;;;;;51.17;35.28;;;;;;;;;;5024526;28;20029;-51
2023/04/08 00:03:25;;;;;;;51.42;30.42;;;;;;;;;;5024612;28;20501;-52
2023/04/08 00:05:50;;;;;;;40.00;17.98;;;;;;;;;;5025129;28;20034;-55
2023/04/08 00:08:16;;;;;;;33.60;16.98;;;;;;;;;;5024588;28;20022;-53
2023/04/08 00:10:41;;;;;;;31.70;16.92;;;;;;;;;;5024247;28;20095;-54
2023/04/08 00:13:06;;;;;;;43.13;20.60;;;;;;;;;;5024173;28;20025;-52
2023/04/08 00:15:31;;;;;;;37.50;20.58;;;;;;;;;;5022838;28;20041;-55
2023/04/08 00:17:57;;;;;;;34.33;21.25;;;;;;;;;;5024344;28;20021;-53
2023/04/08 00:20:23;;;;;;;42.10;26.45;;;;;;;;;;5024202;28;20022;-57
2023/04/08 00:22:48;;;;;;;60.00;49.80;;;;;;;;;;5021229;28;20026;-56
2023/04/08 00:25:13;;;;;;;92.65;66.38;;;;;;;;;;5023823;28;20025;-55
2023/04/08 00:27:39;;;;;;;77.60;59.65;;;;;;;;;;5023687;28;20030;-53
2023/04/08 00:30:04;;;;;;;83.10;61.00;;;;;;;;;;5021932;28;20022;-51
2023/04/08 00:32:30;;;;;;;93.00;68.50;;;;;;;;;;5023727;28;20132;-53
2023/04/08 00:34:55;;;;;;;90.82;63.83;;;;;;;;;;5023319;28;20017;-55
2023/04/08 00:37:21;;;;;;;82.05;62.30;;;;;;;;;;5023651;28;20112;-56
2023/04/08 00:39:47;;;;;;;87.93;62.40;;;;;;;;;;5023838;28;20202;-54
2023/04/08 00:42:12;;;;;;;83.05;62.45;;;;;;;;;;5024080;28;20291;-53
2023/04/08 00:44:37;;;;;;;95.10;69.57;;;;;;;;;;5023867;28;20048;-57
2023/04/08 00:47:03;;;;;;;71.30;55.00;;;;;;;;;;5023725;28;20032;-49
2023/04/08 00:49:30;;;;;;;79.35;60.92;;;;;;;;;;5023736;28;20056;-56
2023/04/08 00:51:55;;;;;;;81.40;60.42;;;;;;;;;;5024122;28;20025;-55
2023/04/08 00:54:20;;;;;;;80.20;60.67;;;;;;;;;;5023942;28;20109;-55
2023/04/08 00:56:46;;;;;;;74.50;59.83;;;;;;;;;;5023830;28;20108;-54
2023/04/08 00:59:11;;;;;;;77.85;56.72;;;;;;;;;;5023736;28;20539;-52
2023/04/08 01:01:55;;;;;;;72.90;57.97;;;;;;;;;;5023530;28;20057;-56
2023/04/08 01:04:23;;;;;;;78.53;60.05;;;;;;;;;;5023904;28;20014;-57
2023/04/08 01:06:53;;;;;;;69.82;54.60;;;;;;;;;;5023520;28;20700;-57
2023/04/08 01:09:20;;;;;;;74.78;57.90;;;;;;;;;;5022286;28;20536;-57
2023/04/08 01:11:48;;;;;;;78.05;62.30;;;;;;;;;;5023165;28;20065;-55
2023/04/08 01:14:16;;;;;;;88.57;65.63;;;;;;;;;;5023594;28;20559;-57
2023/04/08 01:16:42;;;;;;;75.32;57.20;;;;;;;;;;5023077;28;20064;-52
2023/04/08 01:19:08;;;;;;;74.50;59.45;;;;;;;;;;5020896;28;20034;-55
2023/04/08 01:21:35;;;;;;;75.07;58.13;;;;;;;;;;5023254;28;20455;-54
2023/04/08 01:24:15;;;;;;;68.35;54.45;;;;;;;;;;5023141;28;20029;-54
2023/04/08 01:26:41;;;;;;;78.25;61.05;;;;;;;;;;5023071;28;20021;-54
2023/04/08 01:29:07;;;;;;;73.70;56.75;;;;;;;;;;5023347;28;20510;-54
2023/04/08 01:31:35;;;;;;;88.93;62.90;;;;;;;;;;5023464;28;20112;-55
2023/04/08 01:34:03;;;;;;;85.88;64.00;;;;;;;;;;5023393;28;20095;-50
2023/04/08 01:36:31;;;;;;;80.55;60.65;;;;;;;;;;5023210;28;20054;-54
2023/04/08 01:38:57;;;;;;;89.72;66.03;;;;;;;;;;5023025;28;20049;-53
2023/04/08 01:41:22;;;;;;;84.35;63.15;;;;;;;;;;5026592;28;20504;-53
2023/04/08 01:43:49;;;;;;;103.32;71.35;;;;;;;;;;5027001;28;20053;-54
2023/04/08 01:46:14;;;;;;;103.97;72.28;;;;;;;;;;5027237;28;20465;-53
2023/04/08 01:48:40;;;;;;;91.05;66.78;;;;;;;;;;5026677;28;20029;-55
2023/04/08 01:51:06;;;;;;;92.95;66.45;;;;;;;;;;5026820;28;20699;-54
2023/04/08 01:53:31;;;;;;;113.38;75.78;;;;;;;;;;5026639;28;20029;-54
2023/04/08 01:55:58;;;;;;;103.20;73.10;;;;;;;;;;5026706;28;20056;-54
2023/04/08 01:58:25;;;;;;;91.53;65.88;;;;;;;;;;5026633;28;20428;-56
2023/04/08 02:00:53;;;;;;;77.55;59.33;;;;;;;;;;5026363;28;20171;-52
2023/04/08 02:03:20;;;;;;;94.65;69.05;;;;;;;;;;5026524;28;20013;-52
2023/04/08 02:05:45;;;;;;;103.35;71.85;;;;;;;;;;5026571;28;20068;-56
2023/04/08 02:08:11;;;;;;;98.10;69.22;;;;;;;;;;5026964;28;20053;-56
2023/04/08 02:10:36;;;;;;;103.15;70.18;;;;;;;;;;5026473;28;20022;-55
2023/04/08 02:13:02;;;;;;;98.63;70.15;;;;;;;;;;5026319;28;20032;-50
2023/04/08 02:15:28;;;;;;;109.78;73.35;;;;;;;;;;5026397;28;20454;-52
2023/04/08 02:17:55;;;;;;;94.85;67.43;;;;;;;;;;5024976;28;20796;-56
2023/04/08 02:20:20;;;;;;;118.13;74.97;;;;;;;;;;5026039;28;20029;-55
2023/04/08 02:22:51;;;;;;;107.32;74.28;;;;;;;;;;5026114;28;20033;-53
2023/04/08 02:25:20;;;;;;;121.72;76.00;;;;;;;;;;5026380;28;20030;-56
2023/04/08 02:27:48;;;;;;;127.43;79.70;;;;;;;;;;5026527;28;20021;-53
2023/04/08 02:30:14;;;;;;;124.05;80.68;;;;;;;;;;5025960;28;20082;-57
2023/04/08 02:32:40;;;;;;;116.07;76.40;;;;;;;;;;5025996;28;20044;-54
2023/04/08 02:35:05;;;;;;;117.40;75.97;;;;;;;;;;5025725;28;20033;-50
2023/04/08 02:37:31;;;;;;;141.95;86.57;;;;;;;;;;5026035;28;20061;-52
2023/04/08 02:39:56;;;;;;;139.15;84.88;;;;;;;;;;5026138;28;20099;-54
2023/04/08 02:42:22;;;;;;;130.23;76.93;;;;;;;;;;5026124;28;20191;-53
2023/04/08 02:44:47;;;;;;;119.72;74.03;;;;;;;;;;5025911;28;20104;-52
2023/04/08 02:47:12;;;;;;;137.07;81.70;;;;;;;;;;5025618;28;20025;-54
2023/04/08 02:49:38;;;;;;;142.90;85.97;;;;;;;;;;5025665;28;20030;-51
2023/04/08 02:52:03;;;;;;;145.80;86.80;;;;;;;;;;5025124;28;20431;-53
2023/04/08 02:54:29;;;;;;;146.18;86.90;;;;;;;;;;5025927;28;20067;-57
2023/04/08 02:56:54;;;;;;;131.23;79.55;;;;;;;;;;5025623;28;20014;-51
2023/04/08 02:59:19;;;;;;;143.15;82.97;;;;;;;;;;5025480;28;20025;-51
2023/04/08 03:01:44;;;;;;;162.13;93.35;;;;;;;;;;5025232;28;20053;-54
2023/04/08 03:04:10;;;;;;;144.40;83.82;;;;;;;;;;5026070;28;20014;-53
2023/04/08 03:06:35;;;;;;;128.35;78.38;;;;;;;;;;5025381;28;20025;-52
2023/04/08 03:09:00;;;;;;;124.15;78.97;;;;;;;;;;5025462;28;20025;-54
2023/04/08 03:11:25;;;;;;;144.27;86.75;;;;;;;;;;5025529;28;20025;-51
2023/04/08 03:13:51;;;;;;;142.70;83.28;;;;;;;;;;5025513;28;20554;-54
2023/04/08 03:16:16;;;;;;;117.65;74.78;;;;;;;;;;5025315;28;20031;-53
2023/04/08 03:18:41;;;;;;;115.63;75.32;;;;;;;;;;5024983;28;20026;-52
2023/04/08 03:21:06;;;;;;;116.60;75.68;;;;;;;;;;5024570;28;20112;-54
2023/04/08 03:23:32;;;;;;;146.77;85.68;;;;;;;;;;5025048;28;20009;-54
2023/04/08 03:25:57;;;;;;;143.70;85.47;;;;;;;;;;5022294;28;20447;-51
2023/04/08 03:28:23;;;;;;;152.60;89.82;;;;;;;;;;5024811;28;20021;-52
2023/04/08 03:30:48;;;;;;;154.63;88.90;;;;;;;;;;5024864;28;20060;-54
2023/04/08 03:33:13;;;;;;;146.13;87.20;;;;;;;;;;5024672;28;20660;-54
2023/04/08 03:35:39;;;;;;;158.05;88.57;;;;;;;;;;5025161;28;20075;-57
2023/04/08 03:38:04;;;;;;;184.10;94.43;;;;;;;;;;5038966;28;20036;-57
2023/04/08 03:40:29;;;;;;;187.27;99.93;;;;;;;;;;5024412;28;20561;-54
2023/04/08 03:42:54;;;;;;;194.60;106.05;;;;;;;;;;5024626;28;20017;-54
2023/04/08 03:45:20;;;;;;;168.85;93.57;;;;;;;;;;5024260;28;20036;-49
2023/04/08 03:47:45;;;;;;;165.30;93.88;;;;;;;;;;5023384;28;20080;-51
2023/04/08 03:50:10;;;;;;;141.23;85.38;;;;;;;;;;5024319;28;20075;-52
2023/04/08 03:52:36;;;;;;;120.85;76.88;;;;;;;;;;5024199;28;20033;-52
2023/04/08 03:55:01;;;;;;;124.00;77.40;;;;;;;;;;5024107;28;20021;-55
2023/04/08 03:57:26;;;;;;;105.78;69.10;;;;;;;;;;5024229;28;20029;-54
2023/04/08 03:59:52;;;;;;;114.30;74.07;;;;;;;;;;5024289;28;20033;-52
2023/04/08 04:02:17;;;;;;;119.88;74.72;;;;;;;;;;5005160;28;20034;-57
2023/04/08 04:04:42;;;;;;;119.80;79.40;;;;;;;;;;5023108;28;20048;-54
2023/04/08 04:07:08;;;;;;;116.13;77.90;;;;;;;;;;5023879;28;20500;-54
2023/04/08 04:09:33;;;;;;;130.52;80.72;;;;;;;;;;5024455;28;20148;-54
2023/04/08 04:11:58;;;;;;;156.63;88.85;;;;;;;;;;5024081;28;20071;-56
2023/04/08 04:14:24;;;;;;;187.63;97.78;;;;;;;;;;5024257;28;20056;-51
2023/04/08 04:16:49;;;;;;;186.60;98.45;;;;;;;;;;5024069;28;20021;-50
2023/04/08 04:19:16;;;;;;;186.23;98.13;;;;;;;;;;5024069;28;20067;-53
2023/04/08 04:21:41;;;;;;;175.38;95.38;;;;;;;;;;5024314;28;20510;-54
2023/04/08 04:24:07;;;;;;;174.05;94.43;;;;;;;;;;5023660;28;20156;-54
2023/04/08 04:26:32;;;;;;;185.23;100.25;;;;;;;;;;5024259;28;20021;-56
2023/04/08 04:28:57;;;;;;;205.35;102.72;;;;;;;;;;5024030;28;20104;-55
2023/04/08 04:31:26;;;;;;;163.00;91.38;;;;;;;;;;5023833;28;20384;-56
2023/04/08 04:33:51;;;;;;;128.75;80.50;;;;;;;;;;5023604;28;20040;-53
2023/04/08 04:36:17;;;;;;;132.38;84.25;;;;;;;;;;5023619;28;20049;-56
2023/04/08 04:38:42;;;;;;;126.00;80.20;;;;;;;;;;5023421;28;20268;-57
2023/04/08 04:41:07;;;;;;;117.63;77.25;;;;;;;;;;5023642;28;20373;-55
2023/04/08 04:43:33;;;;;;;131.57;83.93;;;;;;;;;;5023353;28;20018;-56
2023/04/08 04:45:58;;;;;;;120.82;79.95;;;;;;;;;;5023539;28;20025;-53
2023/04/08 04:48:23;;;;;;;132.30;80.97;;;;;;;;;;5023563;28;20091;-56
2023/04/08 04:50:55;;;;;;;112.55;74.97;;;;;;;;;;5023425;28;20453;-51
2023/04/08 04:53:20;;;;;;;111.25;74.47;;;;;;;;;;5024054;28;20033;-55
2023/04/08 04:55:45;;;;;;;103.90;72.80;;;;;;;;;;5023782;28;20018;-50
2023/04/08 04:58:11;;;;;;;104.47;69.03;;;;;;;;;;5023610;28;20109;-57
2023/04/08 05:00:36;;;;;;;96.28;65.97;;;;;;;;;;5023302;28;20087;-55
2023/04/08 05:03:01;;;;;;;96.25;68.25;;;;;;;;;;5023193;28;20504;-55
2023/04/08 05:05:27;;;;;;;105.32;71.25;;;;;;;;;;5023492;28;20076;-57
2023/04/08 05:07:52;;;;;;;110.78;73.32;;;;;;;;;;5023452;28;20014;-55
2023/04/08 05:10:17;;;;;;;108.35;73.50;;;;;;;;;;5020804;28;20040;-52
2023/04/08 05:12:43;;;;;;;39.05;19.02;;;;;;;;;;5023290;28;20037;-53
2023/04/08 05:15:08;;;;;;;34.35;16.92;;;;;;;;;;5024958;28;20548;-51
2023/04/08 05:17:34;;;;;;;33.42;16.88;;;;;;;;;;5027389;28;20029;-50
2023/04/08 05:19:59;;;;;;;34.28;17.63;;;;;;;;;;5027480;28;20497;-53
2023/04/08 05:22:25;;;;;;;32.67;17.23;;;;;;;;;;5026978;28;20029;-55
2023/04/08 05:24:50;;;;;;;33.95;16.52;;;;;;;;;;5008021;28;20366;-53
2023/04/08 05:27:15;;;;;;;33.97;18.25;;;;;;;;;;5027239;28;20026;-56
2023/04/08 05:29:41;;;;;;;36.85;18.17;;;;;;;;;;5027103;28;20022;-53
2023/04/08 05:32:06;;;;;;;36.03;16.83;;;;;;;;;;5027001;28;20030;-55
2023/04/08 05:34:31;;;;;;;33.42;16.55;;;;;;;;;;5026917;28;20151;-56
2023/04/08 05:36:57;;;;;;;35.10;17.48;;;;;;;;;;5026704;28;20046;-57
2023/04/08 05:39:22;;;;;;;50.53;19.85;;;;;;;;;;5026888;28;20044;-54
2023/04/08 05:41:47;;;;;;;40.03;19.08;;;;;;;;;;5007781;28;20688;-54
2023/04/08 05:44:13;;;;;;;37.47;19.85;;;;;;;;;;5026803;28;20121;-54
2023/04/08 05:46:38;;;;;;;34.53;19.15;;;;;;;;;;5026747;28;20025;-56
2023/04/08 05:49:03;;;;;;;37.90;17.20;;;;;;;;;;5026536;28;20429;-53
2023/04/08 05:51:29;;;;;;;35.63;17.98;;;;;;;;;;5026753;28;20029;-55
2023/04/08 05:53:54;;;;;;;32.80;17.25;;;;;;;;;;5026631;28;20571;-56
2023/04/08 05:56:20;;;;;;;33.35;16.48;;;;;;;;;;5026887;28;20029;-51
2023/04/08 05:58:46;;;;;;;31.65;16.40;;;;;;;;;;5026408;28;20029;-55
2023/04/08 06:01:11;;;;;;;34.00;17.50;;;;;;;;;;5026569;28;20041;-54
2023/04/08 06:03:36;;;;;;;36.13;18.08;;;;;;;;;;5026460;28;20374;-53
2023/04/08 06:06:01;;;;;;;35.22;16.73;;;;;;;;;;5026372;28;20017;-57
2023/04/08 06:08:27;;;;;;;31.52;16.88;;;;;;;;;;5026566;28;20052;-51
2023/04/08 06:10:52;;;;;;;37.10;17.88;;;;;;;;;;5026003;28;20021;-54
2023/04/08 06:13:19;;;;;;;32.33;17.08;;;;;;;;;;5026353;28;20131;-54
2023/04/08 06:15:44;;;;;;;31.40;16.00;;;;;;;;;;5026155;28;20018;-57
2023/04/08 06:18:09;;;;;;;33.85;16.45;;;;;;;;;;5026170;28;20090;-53
2023/04/08 06:20:35;;;;;;;31.63;16.25;;;;;;;;;;5025862;28;20083;-53
2023/04/08 06:23:00;;;;;;;34.45;16.08;;;;;;;;;;5026097;28;20025;-51
2023/04/08 06:25:26;;;;;;;32.38;17.02;;;;;;;;;;5025877;28;20021;-54
2023/04/08 06:27:51;;;;;;;32.40;15.93;;;;;;;;;;5005926;28;20030;-54
2023/04/08 06:30:16;;;;;;;31.10;16.45;;;;;;;;;;5025872;28;20026;-54
2023/04/08 06:32:42;;;;;;;29.30;14.75;;;;;;;;;;5025874;28;20029;-53
2023/04/08 06:35:07;;;;;;;35.90;17.35;;;;;;;;;;5025907;28;20128;-54
2023/04/08 06:37:37;;;;;;;33.97;17.33;;;;;;;;;;5025780;28;20734;-57
2023/04/08 06:40:02;;;;;;;37.05;17.30;;;;;;;;;;5025997;28;20088;-51
2023/04/08 06:42:28;;;;;;;31.65;17.52;;;;;;;;;;5025787;28;20112;-52
2023/04/08 06:44:53;;;;;;;34.90;16.80;;;;;;;;;;5025679;28;20485;-52
2023/04/08 06:47:18;;;;;;;31.52;16.52;;;;;;;;;;5025609;28;20443;-53
2023/04/08 06:49:43;;;;;;;31.55;16.55;;;;;;;;;;5025785;28;20573;-57
2023/04/08 06:52:09;;;;;;;33.58;17.42;;;;;;;;;;5025651;28;20030;-54
2023/04/08 06:54:35;;;;;;;36.13;18.10;;;;;;;;;;5025773;28;20053;-57
2023/04/08 06:57:00;;;;;;;35.10;17.75;;;;;;;;;;5025433;28;20841;-52
2023/04/08 06:59:25;;;;;;;32.33;17.05;;;;;;;;;;5006298;28;20121;-54
2023/04/08 07:01:50;;;;;;;35.88;18.10;;;;;;;;;;5025730;28;20087;-56
2023/04/08 07:04:16;;;;;;;33.17;16.98;;;;;;;;;;5025411;28;20030;-51
2023/04/08 07:06:41;;;;;;;33.17;17.92;;;;;;;;;;5025011;28;20021;-55
2023/04/08 07:09:06;;;;;;;34.05;17.33;;;;;;;;;;5025327;28;20017;-55
2023/04/08 07:11:32;;;;;;;33.13;16.40;;;;;;;;;;5025033;28;20112;-53
2023/04/08 07:13:57;;;;;;;37.45;19.25;;;;;;;;;;5025273;28;20079;-56
2023/04/08 07:16:23;;;;;;;38.88;19.05;;;;;;;;;;5025175;28;20080;-54
2023/04/08 07:18:48;;;;;;;30.13;16.38;;;;;;;;;;5025079;28;20021;-55
2023/04/08 07:21:13;;;;;;;35.58;18.27;;;;;;;;;;5025003;28;20404;-56
2023/04/08 07:23:39;;;;;;;33.58;18.73;;;;;;;;;;5025251;28;20013;-51
2023/04/08 07:26:04;;;;;;;35.95;18.63;;;;;;;;;;5024801;28;20018;-53
2023/04/08 07:28:30;;;;;;;38.35;19.65;;;;;;;;;;5024908;28;20481;-57
2023/04/08 07:30:56;;;;;;;38.90;21.88;;;;;;;;;;5024777;28;20037;-53
2023/04/08 07:33:22;;;;;;;38.92;19.73;;;;;;;;;;5024742;28;20056;-57
2023/04/08 07:35:47;;;;;;;51.30;26.60;;;;;;;;;;5024932;28;20049;-58
2023/04/08 07:38:13;;;;;;;34.92;18.25;;;;;;;;;;5024646;28;20030;-53
2023/04/08 07:40:38;;;;;;;31.60;17.30;;;;;;;;;;5024803;28;20056;-55
2023/04/08 07:43:05;;;;;;;35.00;18.45;;;;;;;;;;5024910;28;20363;-56
2023/04/08 07:45:30;;;;;;;35.63;18.20;;;;;;;;;;5022297;28;20039;-54
2023/04/08 07:47:55;;;;;;;37.70;18.42;;;;;;;;;;5024538;28;20026;-55
2023/04/08 07:50:21;;;;;;;35.85;19.27;;;;;;;;;;5023459;28;20032;-56
2023/04/08 07:52:46;;;;;;;35.80;19.23;;;;;;;;;;5024832;28;20141;-54
2023/04/08 07:55:12;;;;;;;43.58;21.92;;;;;;;;;;5024532;28;20017;-55
2023/04/08 07:57:37;;;;;;;39.97;20.00;;;;;;;;;;5024400;28;20562;-55
2023/04/08 08:00:03;;;;;;;43.38;20.42;;;;;;;;;;5021694;28;20389;-50
2023/04/08 08:02:29;;;;;;;42.20;22.60;;;;;;;;;;5024211;28;20029;-57
2023/04/08 08:04:54;;;;;;;38.67;20.83;;;;;;;;;;5024342;28;20018;-51
2023/04/08 08:07:20;;;;;;;35.85;21.35;;;;;;;;;;5024140;28;20026;-55
2023/04/08 08:09:45;;;;;;;37.85;18.67;;;;;;;;;;5024543;28;20064;-58
2023/04/08 08:12:10;;;;;;;35.67;20.30;;;;;;;;;;5005386;28;20128;-54
2023/04/08 08:14:35;;;;;;;37.35;19.85;;;;;;;;;;5023884;28;20018;-54
2023/04/08 08:17:02;;;;;;;40.45;20.55;;;;;;;;;;5023930;28;20449;-54
2023/04/08 08:19:27;;;;;;;36.72;17.80;;;;;;;;;;5023979;28;20389;-55
2023/04/08 08:21:53;;;;;;;35.75;19.48;;;;;;;;;;5024025;28;20025;-58
2023/04/08 08:24:18;;;;;;;35.63;17.77;;;;;;;;;;5023752;28;20198;-55
2023/04/08 08:26:48;;;;;;;34.53;17.98;;;;;;;;;;5004826;28;20057;-52
2023/04/08 08:29:13;;;;;;;41.20;19.05;;;;;;;;;;5023603;28;20074;-52
2023/04/08 08:31:38;;;;;;;31.75;16.35;;;;;;;;;;5023524;28;20034;-54
2023/04/08 08:34:04;;;;;;;32.70;18.65;;;;;;;;;;5023675;28;20044;-57
2023/04/08 08:36:30;;;;;;;32.97;16.65;;;;;;;;;;5023437;28;20049;-53
2023/04/08 08:38:55;;;;;;;39.38;18.70;;;;;;;;;;5023685;28;20037;-52
2023/04/08 08:41:20;;;;;;;37.15;20.00;;;;;;;;;;5004341;28;20037;-54
2023/04/08 08:43:46;;;;;;;33.22;18.13;;;;;;;;;;5023714;28;20033;-55
2023/04/08 08:46:14;;;;;;;33.15;16.92;;;;;;;;;;5023526;28;20026;-54
2023/04/08 08:48:39;;;;;;;35.80;16.15;;;;;;;;;;5023525;28;20060;-54
2023/04/08 08:51:08;;;;;;;29.25;14.68;;;;;;;;;;5022943;28;20069;-56
2023/04/08 08:53:33;;;;;;;29.48;15.27;;;;;;;;;;5023401;28;20100;-56
2023/04/08 08:55:59;;;;;;;34.42;16.23;;;;;;;;;;5023530;28;20133;-54
2023/04/08 08:58:27;;;;;;;32.75;16.45;;;;;;;;;;5021908;28;20022;-56
2023/04/08 09:00:53;;;;;;;27.10;14.05;;;;;;;;;;5023217;28;20021;-54
2023/04/08 09:03:21;;;;;;;31.80;15.20;;;;;;;;;;5023092;28;20041;-54
2023/04/08 09:05:51;;;;;;;28.47;14.33;;;;;;;;;;5023594;28;20018;-56
2023/04/08 09:08:22;;;;;;;30.55;15.18;;;;;;;;;;5037710;28;20259;-55
2023/04/08 09:10:48;;;;;;;29.02;16.25;;;;;;;;;;5023301;28;20032;-57
2023/04/08 09:13:13;;;;;;;25.08;15.10;;;;;;;;;;5023127;28;20389;-55
2023/04/08 09:15:58;;;;;;;29.75;15.88;;;;;;;;;;5021879;28;20117;-57
2023/04/08 09:18:24;;;;;;;32.05;15.18;;;;;;;;;;5023354;28;20017;-55
2023/04/08 09:20:52;;;;;;;27.05;13.25;;;;;;;;;;5022937;28;20501;-54
2023/04/08 09:23:17;;;;;;;25.05;12.70;;;;;;;;;;5023511;28;20030;-56
2023/04/08 09:25:43;;;;;;;30.15;16.20;;;;;;;;;;5023211;28;20036;-57
2023/04/08 09:28:17;;;;;;;28.85;16.05;;;;;;;;;;5023473;28;20052;-55
2023/04/08 09:30:43;;;;;;;25.92;14.32;;;;;;;;;;5023356;28;20413;-56
2023/04/08 09:33:08;;;;;;;29.15;15.60;;;;;;;;;;5023125;28;20014;-56
2023/04/08 09:35:33;;;;;;;27.17;15.32;;;;;;;;;;5023154;28;20088;-54
2023/04/08 09:37:59;;;;;;;34.97;17.55;;;;;;;;;;5023314;28;20017;-52
2023/04/08 09:40:26;;;;;;;33.72;16.98;;;;;;;;;;5022909;28;20026;-55
2023/04/08 09:42:53;;;;;;;33.65;18.77;;;;;;;;;;5020513;28;20064;-55
2023/04/08 09:45:18;;;;;;;29.45;16.08;;;;;;;;;;5023054;28;20465;-57
2023/04/08 09:48:01;;;;;;;28.30;15.35;;;;;;;;;;5023182;28;20025;-53
2023/04/08 09:50:30;;;;;;;26.05;14.25;;;;;;;;;;5023093;28;20390;-56
2023/04/08 09:53:14;;;;;;;27.05;14.45;;;;;;;;;;5022930;28;20029;-57
2023/04/08 09:55:42;;;;;;;29.73;16.10;;;;;;;;;;5023167;28;20081;-54
2023/04/08 09:58:15;;;;;;;25.65;13.80;;;;;;;;;;5022893;28;20025;-56
2023/04/08 10:00:45;;;;;;;26.85;15.00;;;;;;;;;;5024002;28;20032;-56
2023/04/08 10:03:28;;;;;;;33.40;15.45;;;;;;;;;;5025405;28;20393;-58
2023/04/08 10:05:55;;;;;;;31.77;16.20;;;;;;;;;;5026951;28;20017;-50
2023/04/08 10:08:21;;;;;;;24.33;14.32;;;;;;;;;;5027034;28;20056;-52
2023/04/08 10:10:46;;;;;;;23.85;13.45;;;;;;;;;;5026070;28;20061;-52
2023/04/08 10:13:12;;;;;;;25.55;15.00;;;;;;;;;;5026270;28;20484;-55
2023/04/08 10:15:39;;;;;;;25.38;14.70;;;;;;;;;;5026153;28;20029;-50
2023/04/08 10:18:05;;;;;;;26.15;16.13;;;;;;;;;;5026650;28;20053;-56
2023/04/08 10:20:33;;;;;;;24.40;13.52;;;;;;;;;;5026285;28;20057;-55
2023/04/08 10:22:59;;;;;;;25.10;13.25;;;;;;;;;;5026224;28;20492;-57
2023/04/08 10:25:28;;;;;;;26.48;13.48;;;;;;;;;;5026294;28;20048;-54
2023/04/08 10:27:54;;;;;;;27.83;13.73;;;;;;;;;;5026330;28;20013;-57
2023/04/08 10:30:30;;;;;;;28.17;14.48;;;;;;;;;;5026220;28;20026;-54
2023/04/08 10:32:56;;;;;;;23.27;13.65;;;;;;;;;;5024583;28;20124;-54
2023/04/08 10:35:31;;;;;;;26.63;14.00;;;;;;;;;;5025625;28;20571;-53
2023/04/08 10:37:57;;;;;;;21.23;12.43;;;;;;;;;;5026302;28;20033;-56
2023/04/08 10:40:22;;;;;;;22.15;13.00;;;;;;;;;;5025796;28;20021;-56
2023/04/08 10:42:53;;;;;;;22.38;12.52;;;;;;;;;;5025773;28;20049;-54
2023/04/08 10:45:19;;;;;;;20.00;11.85;;;;;;;;;;5026180;28;20391;-54
2023/04/08 10:47:44;;;;;;;22.60;12.48;;;;;;;;;;5025837;28;20739;-56
2023/04/08 10:50:16;;;;;;;21.35;12.52;;;;;;;;;;5026082;28;20026;-54
2023/04/08 10:52:52;;;;;;;18.98;11.85;;;;;;;;;;5026075;28;20064;-55
2023/04/08 10:55:24;;;;;;;23.13;13.77;;;;;;;;;;5025412;28;20100;-54
2023/04/08 10:57:50;;;;;;;20.90;11.32;;;;;;;;;;5026007;28;20105;-55
2023/04/08 11:00:19;;;;;;;21.17;12.02;;;;;;;;;;5025745;28;20048;-54
2023/04/08 11:02:44;;;;;;;22.08;13.15;;;;;;;;;;5025401;28;20025;-52
2023/04/08 11:05:10;;;;;;;22.13;12.55;;;;;;;;;;5025732;28;20462;-56
2023/04/08 11:07:42;;;;;;;25.40;13.43;;;;;;;;;;5025447;28;20021;-56
2023/04/08 11:10:07;;;;;;;24.63;13.48;;;;;;;;;;5025479;28;20084;-55
2023/04/08 11:12:33;;;;;;;22.67;12.52;;;;;;;;;;5024843;28;20374;-56
2023/04/08 11:14:58;;;;;;;19.15;11.27;;;;;;;;;;5025070;28;20022;-54
2023/04/08 11:17:24;;;;;;;19.30;10.48;;;;;;;;;;5025382;28;20088;-56
2023/04/08 11:19:49;;;;;;;19.02;11.63;;;;;;;;;;5025145;28;20766;-55
2023/04/08 11:22:15;;;;;;;19.70;11.35;;;;;;;;;;5024867;28;20025;-51
2023/04/08 11:24:40;;;;;;;17.85;11.23;;;;;;;;;;5025358;28;20104;-51
2023/04/08 11:27:06;;;;;;;21.90;11.35;;;;;;;;;;5025272;28;20454;-55
2023/04/08 11:29:32;;;;;;;19.38;11.70;;;;;;;;;;5025047;28;20017;-54
2023/04/08 11:31:57;;;;;;;19.42;10.45;;;;;;;;;;5025024;28;20029;-54
2023/04/08 11:34:23;;;;;;;20.88;12.23;;;;;;;;;;5025146;28;20056;-55
2023/04/08 11:36:49;;;;;;;16.65;10.57;;;;;;;;;;5024800;28;20251;-52
2023/04/08 11:39:15;;;;;;;16.80;10.27;;;;;;;;;;5025022;28;20765;-56
2023/04/08 11:41:40;;;;;;;16.95;9.60;;;;;;;;;;5024906;28;20409;-55
2023/04/08 11:44:06;;;;;;;22.08;12.40;;;;;;;;;;5024692;28;20076;-55
2023/04/08 11:46:31;;;;;;;14.77;9.35;;;;;;;;;;5024744;28;20032;-54
2023/04/08 11:49:00;;;;;;;17.25;9.05;;;;;;;;;;5024584;28;20485;-56
2023/04/08 11:51:26;;;;;;;17.25;10.25;;;;;;;;;;5024339;28;20060;-58
2023/04/08 11:53:52;;;;;;;20.10;10.57;;;;;;;;;;5024437;28;20044;-56
2023/04/08 11:56:18;;;;;;;15.45;9.15;;;;;;;;;;5024673;28;20013;-53
2023/04/08 11:58:43;;;;;;;15.57;9.73;;;;;;;;;;5024318;28;20021;-57
2023/04/08 12:01:08;;;;;;;17.23;9.88;;;;;;;;;;5024330;28;20026;-57
2023/04/08 12:03:34;;;;;;;17.48;10.07;;;;;;;;;;5024205;28;20055;-57
2023/04/08 12:05:59;;;;;;;16.25;9.20;;;;;;;;;;5024340;28;20223;-56
2023/04/08 12:08:24;;;;;;;17.70;10.18;;;;;;;;;;5005189;28;20040;-57
2023/04/08 12:10:50;;;;;;;16.80;9.48;;;;;;;;;;5023999;28;20060;-53
2023/04/08 12:13:15;;;;;;;16.48;10.13;;;;;;;;;;5024151;28;20053;-55
2023/04/08 12:15:41;;;;;;;13.70;9.32;;;;;;;;;;5024150;28;20036;-57
2023/04/08 12:18:06;;;;;;;16.88;9.57;;;;;;;;;;5024322;28;20056;-53
2023/04/08 12:20:31;;;;;;;16.85;10.63;;;;;;;;;;5023656;28;20374;-56
2023/04/08 12:22:56;;;;;;;20.00;10.50;;;;;;;;;;5024372;28;20067;-57
2023/04/08 12:25:22;;;;;;;16.17;9.68;;;;;;;;;;5023459;28;20082;-56
2023/04/08 12:27:47;;;;;;;16.33;9.57;;;;;;;;;;5024181;28;20030;-56
2023/04/08 12:30:12;;;;;;;16.98;9.75;;;;;;;;;;5024040;28;20021;-56
2023/04/08 12:32:38;;;;;;;15.93;9.48;;;;;;;;;;5023648;28;20049;-56
2023/04/08 12:35:03;;;;;;;21.65;10.52;;;;;;;;;;5023557;28;20447;-57
2023/04/08 12:37:28;;;;;;;14.77;9.85;;;;;;;;;;5023690;28;20030;-52
2023/04/08 12:39:54;;;;;;;17.10;9.63;;;;;;;;;;5023938;28;20034;-55
2023/04/08 12:42:19;;;;;;;16.45;10.07;;;;;;;;;;5024110;28;20026;-55
2023/04/08 12:44:45;;;;;;;20.90;11.02;;;;;;;;;;5024133;28;20294;-55
2023/04/08 12:47:10;;;;;;;20.77;11.90;;;;;;;;;;5023856;28;20017;-57
2023/04/08 12:49:35;;;;;;;19.58;11.13;;;;;;;;;;5023731;28;20029;-57
2023/04/08 12:52:01;;;;;;;15.02;9.48;;;;;;;;;;5023375;28;20033;-53
2023/04/08 12:54:26;;;;;;;19.38;9.95;;;;;;;;;;5023732;28;20048;-56
2023/04/08 12:56:51;;;;;;;15.98;8.30;;;;;;;;;;5023342;28;20026;-56
2023/04/08 12:59:17;;;;;;;17.60;8.95;;;;;;;;;;5023794;28;20536;-58
2023/04/08 13:01:42;;;;;;;17.88;10.25;;;;;;;;;;5022379;28;20018;-56
2023/04/08 13:04:07;;;;;;;18.85;9.35;;;;;;;;;;5020823;28;20033;-55
2023/04/08 13:06:32;;;;;;;16.75;9.90;;;;;;;;;;5023522;28;20025;-58
2023/04/08 13:08:58;;;;;;;15.45;8.63;;;;;;;;;;5023698;28;20022;-58
2023/04/08 13:11:23;;;;;;;18.90;8.85;;;;;;;;;;5023349;28;20413;-54
2023/04/08 13:13:49;;;;;;;17.25;9.60;;;;;;;;;;5023552;28;20384;-53
2023/04/08 13:16:14;;;;;;;14.13;8.73;;;;;;;;;;5024321;28;20121;-54
2023/04/08 13:18:40;;;;;;;15.07;9.10;;;;;;;;;;5024024;28;20388;-57
2023/04/08 13:21:06;;;;;;;16.23;9.25;;;;;;;;;;5023698;28;20440;-57
2023/04/08 13:23:31;;;;;;;20.05;10.50;;;;;;;;;;5023346;28;20513;-54
2023/04/08 13:25:57;;;;;;;16.25;9.00;;;;;;;;;;5023657;28;20032;-57
2023/04/08 13:28:22;;;;;;;16.40;9.10;;;;;;;;;;5023897;28;20568;-54
2023/04/08 13:30:47;;;;;;;15.50;9.13;;;;;;;;;;5023547;28;20069;-51
2023/04/08 13:33:12;;;;;;;18.92;10.35;;;;;;;;;;5023519;28;20025;-58
2023/04/08 13:35:38;;;;;;;16.92;9.55;;;;;;;;;;5024005;28;20050;-53
2023/04/08 13:38:03;;;;;;;16.90;9.30;;;;;;;;;;5027327;28;20420;-54
2023/04/08 13:40:29;;;;;;;13.18;7.65;;;;;;;;;;5027090;28;20072;-55
2023/04/08 13:42:54;;;;;;;12.38;7.43;;;;;;;;;;5026955;28;20394;-57
2023/04/08 13:45:20;;;;;;;18.17;8.82;;;;;;;;;;5026650;28;20449;-56
2023/04/08 13:47:46;;;;;;;15.13;8.75;;;;;;;;;;5027018;28;20083;-52
2023/04/08 13:50:11;;;;;;;19.50;9.38;;;;;;;;;;5025758;28;20021;-51
2023/04/08 13:52:36;;;;;;;17.80;8.93;;;;;;;;;;5023996;28;20060;-53
2023/04/08 13:55:01;;;;;;;16.77;8.80;;;;;;;;;;5026934;28;20021;-56
2023/04/08 13:57:27;;;;;;;16.45;8.65;;;;;;;;;;5026888;28;20048;-55
2023/04/08 13:59:52;;;;;;;14.77;7.40;;;;;;;;;;5040731;28;20435;-57
2023/04/08 14:02:17;;;;;;;12.77;8.30;;;;;;;;;;5026817;28;20474;-55
2023/04/08 14:04:44;;;;;;;15.27;9.13;;;;;;;;;;5026687;28;20048;-57
2023/04/08 14:07:10;;;;;;;15.13;8.52;;;;;;;;;;5027024;28;20101;-56
2023/04/08 14:09:35;;;;;;;30.05;27.35;;;;;;;;;;5027153;28;20104;-55